Time;durP1;ratioP1;P1;durP2;ratioP2;P2;SDS_P1;SDS_P2;PMS_P1;PMS_P2;Temp;Humidity;BMP_temperature;BMP_pressure;BME280_temperature;BME280_humidity;BME280_pressure;Samples;Min_cycle;Max_cycle;Signal;HPM_P1;HPM_P2
2022/10/28 00:01:47;;;;;;;8.05;2.50;;;;;;;;;;5098424;28;20760;-84
2022/10/28 00:04:15;;;;;;;3.95;2.58;;;;;;;;;;5097555;28;20220;-84
2022/10/28 00:06:42;;;;;;;3.03;2.50;;;;;;;;;;5097382;28;20268;-83
2022/10/28 00:09:09;;;;;;;7.65;3.42;;;;;;;;;;5097907;28;20239;-83
2022/10/28 00:11:37;;;;;;;2.67;1.95;;;;;;;;;;5097935;28;20204;-84
2022/10/28 00:14:06;;;;;;;16.63;3.88;;;;;;;;;;5097744;28;20260;-83
2022/10/28 00:16:36;;;;;;;2.22;2.03;;;;;;;;;;5097859;28;20307;-83
2022/10/28 00:19:08;;;;;;;5.88;2.42;;;;;;;;;;5098046;28;20195;-82
2022/10/28 00:21:37;;;;;;;6.22;2.25;;;;;;;;;;5098539;28;20204;-82
2022/10/28 00:24:06;;;;;;;4.32;2.00;;;;;;;;;;5097532;28;20605;-82
2022/10/28 00:26:36;;;;;;;2.30;2.00;;;;;;;;;;5098467;28;20232;-82
2022/10/28 00:29:06;;;;;;;2.30;1.98;;;;;;;;;;5097328;28;20265;-82
2022/10/28 00:31:35;;;;;;;3.15;2.65;;;;;;;;;;5098773;28;20584;-83
2022/10/28 00:34:08;;;;;;;2.63;2.05;;;;;;;;;;5097729;28;20216;-82
2022/10/28 00:36:39;;;;;;;2.70;2.00;;;;;;;;;;5097921;28;20755;-82
2022/10/28 00:39:12;;;;;;;2.72;2.38;;;;;;;;;;5097449;28;20208;-82
2022/10/28 00:41:42;;;;;;;3.45;2.05;;;;;;;;;;5097615;28;20644;-82
2022/10/28 00:44:54;;;;;;;3.28;2.30;;;;;;;;;;5096883;28;20318;-82
2022/10/28 00:47:40;;;;;;;6.88;2.70;;;;;;;;;;5097802;28;20691;-82
2022/10/28 00:50:21;;;;;;;3.20;2.45;;;;;;;;;;5097240;28;20200;-82
2022/10/28 00:52:53;;;;;;;8.48;2.70;;;;;;;;;;5097486;28;20251;-82
2022/10/28 00:55:22;;;;;;;5.38;2.38;;;;;;;;;;5096866;28;20220;-83
2022/10/28 00:57:50;;;;;;;4.82;2.42;;;;;;;;;;5096630;28;20200;-82
2022/10/28 01:00:18;;;;;;;2.70;2.20;;;;;;;;;;5096831;28;20291;-84
2022/10/28 01:02:48;;;;;;;1.67;1.58;;;;;;;;;;5096554;28;20304;-82
2022/10/28 01:05:19;;;;;;;9.13;1.98;;;;;;;;;;5097187;28;20290;-82
2022/10/28 01:07:47;;;;;;;2.35;2.03;;;;;;;;;;5097717;28;20200;-83
2022/10/28 01:10:15;;;;;;;2.65;1.92;;;;;;;;;;5096408;28;20200;-82
2022/10/28 01:12:57;;;;;;;2.30;2.00;;;;;;;;;;5096280;28;20318;-82
2022/10/28 01:15:33;;;;;;;2.60;2.00;;;;;;;;;;5097347;28;20756;-82
2022/10/28 01:18:11;;;;;;;2.42;1.70;;;;;;;;;;5096687;28;20226;-82
2022/10/28 01:21:23;;;;;;;4.70;2.30;;;;;;;;;;5097005;28;20555;-82
2022/10/28 01:24:06;;;;;;;4.68;2.72;;;;;;;;;;5094612;28;20768;-83
2022/10/28 01:27:19;;;;;;;5.65;2.70;;;;;;;;;;5096658;28;20236;-83
2022/10/28 01:30:07;;;;;;;3.05;1.70;;;;;;;;;;5081703;28;20222;-82
2022/10/28 01:32:45;;;;;;;3.40;2.47;;;;;;;;;;5096317;28;20657;-83
2022/10/28 01:35:17;;;;;;;4.32;3.13;;;;;;;;;;5096360;28;20210;-83
2022/10/28 01:37:53;;;;;;;2.65;2.22;;;;;;;;;;5095759;28;20243;-82
2022/10/28 01:40:28;;;;;;;4.32;3.92;;;;;;;;;;5095782;28;20210;-82
2022/10/28 01:42:59;;;;;;;2.00;1.70;;;;;;;;;;5096702;28;20223;-82
2022/10/28 01:45:30;;;;;;;2.85;2.10;;;;;;;;;;5097126;28;20188;-82
2022/10/28 01:48:02;;;;;;;4.65;3.58;;;;;;;;;;5095920;28;20203;-82
2022/10/28 01:50:35;;;;;;;4.78;2.38;;;;;;;;;;5095863;28;20211;-83
2022/10/28 01:53:09;;;;;;;4.50;2.95;;;;;;;;;;5096661;28;20225;-82
2022/10/28 01:55:40;;;;;;;3.95;2.42;;;;;;;;;;5095718;28;20599;-82
2022/10/28 01:58:09;;;;;;;2.78;2.55;;;;;;;;;;5096143;28;20203;-82
2022/10/28 02:00:37;;;;;;;5.68;3.15;;;;;;;;;;5096352;28;20291;-82
2022/10/28 02:03:09;;;;;;;4.68;2.53;;;;;;;;;;5096307;28;20230;-82
2022/10/28 02:05:45;;;;;;;4.18;2.45;;;;;;;;;;5095729;28;20200;-83
2022/10/28 02:08:46;;;;;;;2.60;2.45;;;;;;;;;;5095724;28;20214;-82
2022/10/28 02:11:44;;;;;;;5.22;3.35;;;;;;;;;;5092748;28;20657;-82
2022/10/28 02:14:35;;;;;;;3.17;2.17;;;;;;;;;;5095886;28;20239;-82
2022/10/28 02:17:09;;;;;;;2.55;2.20;;;;;;;;;;5095442;28;20224;-82
2022/10/28 02:19:47;;;;;;;3.97;1.77;;;;;;;;;;5095770;28;20188;-81
2022/10/28 02:22:21;;;;;;;2.75;2.35;;;;;;;;;;5096310;28;20206;-82
2022/10/28 02:24:55;;;;;;;3.88;2.10;;;;;;;;;;5095654;28;20223;-83
2022/10/28 02:27:32;;;;;;;3.25;2.35;;;;;;;;;;5096006;28;20200;-83
2022/10/28 02:30:05;;;;;;;2.53;2.25;;;;;;;;;;5095976;28;20290;-83
2022/10/28 02:32:37;;;;;;;2.83;2.17;;;;;;;;;;5096327;28;20204;-82
2022/10/28 02:35:11;;;;;;;4.72;2.38;;;;;;;;;;5095423;28;20232;-82
2022/10/28 02:37:39;;;;;;;3.42;2.38;;;;;;;;;;5095065;28;20230;-83
2022/10/28 02:40:12;;;;;;;2.20;2.00;;;;;;;;;;5096077;28;20200;-83
2022/10/28 02:42:45;;;;;;;7.07;2.70;;;;;;;;;;5094708;28;20675;-82
2022/10/28 02:45:16;;;;;;;4.03;2.70;;;;;;;;;;5095668;28;20203;-82
2022/10/28 02:47:48;;;;;;;6.22;2.50;;;;;;;;;;5134601;22;20219;-84
2022/10/28 02:50:20;;;;;;;6.38;2.40;;;;;;;;;;5114719;28;20188;-84
2022/10/28 02:52:51;;;;;;;3.17;2.25;;;;;;;;;;5115203;28;20560;-84
2022/10/28 02:55:20;;;;;;;2.72;2.45;;;;;;;;;;5107169;28;20286;-84
2022/10/28 02:57:48;;;;;;;7.28;3.30;;;;;;;;;;5077296;28;20311;-84
2022/10/28 03:00:19;;;;;;;4.93;2.70;;;;;;;;;;5074266;28;20275;-84
2022/10/28 03:02:46;;;;;;;4.72;3.50;;;;;;;;;;5074183;28;20201;-83
2022/10/28 03:05:16;;;;;;;4.40;2.80;;;;;;;;;;5074500;28;20291;-82
2022/10/28 03:07:43;;;;;;;7.05;2.58;;;;;;;;;;5073731;28;20311;-83
2022/10/28 03:10:11;;;;;;;4.05;2.55;;;;;;;;;;5074356;28;20544;-83
2022/10/28 03:12:38;;;;;;;2.97;2.47;;;;;;;;;;5074174;28;20236;-81
2022/10/28 03:15:07;;;;;;;3.42;2.72;;;;;;;;;;5073945;28;20236;-83
2022/10/28 03:17:35;;;;;;;4.07;2.50;;;;;;;;;;5074457;28;20311;-84
2022/10/28 03:20:02;;;;;;;4.95;2.67;;;;;;;;;;5074479;28;20283;-82
2022/10/28 03:22:31;;;;;;;3.08;2.40;;;;;;;;;;5074052;28;20643;-83
2022/10/28 03:24:58;;;;;;;6.05;2.75;;;;;;;;;;5089711;28;20664;-82
2022/10/28 03:27:26;;;;;;;3.38;2.72;;;;;;;;;;5093713;28;20216;-82
2022/10/28 03:29:53;;;;;;;2.45;2.20;;;;;;;;;;5094304;28;20311;-82
2022/10/28 03:32:21;;;;;;;2.80;2.25;;;;;;;;;;5094475;28;20619;-82
2022/10/28 03:34:48;;;;;;;3.97;2.63;;;;;;;;;;5093733;28;20207;-81
2022/10/28 03:37:16;;;;;;;3.88;2.22;;;;;;;;;;5094235;28;20760;-82
2022/10/28 03:39:45;;;;;;;2.60;2.40;;;;;;;;;;5094566;28;20264;-82
2022/10/28 03:42:12;;;;;;;3.67;2.90;;;;;;;;;;5094308;28;20220;-82
2022/10/28 03:44:39;;;;;;;3.33;2.38;;;;;;;;;;5094572;28;20283;-83
2022/10/28 03:47:07;;;;;;;3.80;2.50;;;;;;;;;;5094388;28;20758;-82
2022/10/28 03:49:34;;;;;;;5.90;2.67;;;;;;;;;;5094272;28;20200;-83
2022/10/28 03:52:02;;;;;;;1.70;1.60;;;;;;;;;;5094546;28;20268;-84
2022/10/28 03:54:30;;;;;;;4.93;2.20;;;;;;;;;;5096557;28;20557;-84
2022/10/28 03:56:59;;;;;;;6.45;2.55;;;;;;;;;;5097631;28;20311;-83
2022/10/28 03:59:26;;;;;;;4.15;2.20;;;;;;;;;;5098455;28;20699;-83
2022/10/28 04:01:54;;;;;;;4.93;2.80;;;;;;;;;;5097926;28;20295;-84
2022/10/28 04:04:21;;;;;;;2.92;1.92;;;;;;;;;;5097278;28;20295;-84
2022/10/28 04:06:48;;;;;;;2.92;1.80;;;;;;;;;;5097363;28;20640;-84
2022/10/28 04:09:16;;;;;;;2.60;1.77;;;;;;;;;;5097984;28;20268;-82
2022/10/28 04:11:43;;;;;;;6.05;2.33;;;;;;;;;;5097613;28;20641;-83
2022/10/28 04:14:12;;;;;;;4.97;2.38;;;;;;;;;;5097797;28;20287;-84
2022/10/28 04:16:40;;;;;;;1.90;1.70;;;;;;;;;;5097530;28;20315;-82
2022/10/28 04:19:07;;;;;;;4.63;2.25;;;;;;;;;;5096780;28;20293;-84
2022/10/28 04:21:35;;;;;;;1.95;1.80;;;;;;;;;;5097810;28;20546;-83
2022/10/28 04:24:02;;;;;;;4.60;1.80;;;;;;;;;;5097981;28;20666;-83
2022/10/28 04:26:30;;;;;;;3.28;2.05;;;;;;;;;;5097603;28;20231;-82
2022/10/28 04:28:58;;;;;;;4.82;2.35;;;;;;;;;;5097690;28;20197;-82
2022/10/28 04:31:27;;;;;;;3.75;2.75;;;;;;;;;;5097291;28;20201;-83
2022/10/28 04:33:54;;;;;;;3.55;2.03;;;;;;;;;;5098333;28;20284;-81
2022/10/28 04:36:21;;;;;;;4.00;2.38;;;;;;;;;;5097711;28;20256;-83
2022/10/28 04:38:50;;;;;;;3.67;2.20;;;;;;;;;;5096609;28;20316;-82
2022/10/28 04:41:18;;;;;;;2.15;1.67;;;;;;;;;;5097474;28;20273;-81
2022/10/28 04:43:45;;;;;;;3.85;2.25;;;;;;;;;;5098116;28;20238;-82
2022/10/28 04:46:13;;;;;;;3.67;1.98;;;;;;;;;;5096625;28;20316;-82
2022/10/28 04:48:42;;;;;;;5.57;2.72;;;;;;;;;;5097221;28;20247;-82
2022/10/28 04:51:09;;;;;;;3.13;1.73;;;;;;;;;;5096896;28;20291;-83
2022/10/28 04:53:37;;;;;;;5.00;2.13;;;;;;;;;;5096971;28;20208;-83
2022/10/28 04:56:05;;;;;;;4.28;3.15;;;;;;;;;;5096234;28;20315;-85
2022/10/28 04:58:32;;;;;;;4.72;2.42;;;;;;;;;;5096026;28;20288;-82
2022/10/28 05:01:00;;;;;;;2.03;1.83;;;;;;;;;;5096294;28;20268;-83
2022/10/28 05:03:27;;;;;;;6.60;2.95;;;;;;;;;;5095839;28;20295;-83
2022/10/28 05:05:56;;;;;;;3.80;2.95;;;;;;;;;;5095086;28;20283;-84
2022/10/28 05:08:23;;;;;;;5.18;2.38;;;;;;;;;;5095820;28;20283;-83
2022/10/28 05:10:51;;;;;;;2.30;2.00;;;;;;;;;;5096093;28;20637;-85
2022/10/28 05:13:19;;;;;;;2.78;2.58;;;;;;;;;;5095751;28;20200;-85
2022/10/28 05:15:48;;;;;;;4.57;2.90;;;;;;;;;;5096224;28;20643;-82
2022/10/28 05:18:16;;;;;;;2.67;2.30;;;;;;;;;;5095619;28;20220;-84
2022/10/28 05:20:44;;;;;;;3.83;2.15;;;;;;;;;;5095968;28;20295;-84
2022/10/28 05:23:12;;;;;;;1.90;1.80;;;;;;;;;;5095934;28;20191;-82
2022/10/28 05:25:40;;;;;;;4.78;2.50;;;;;;;;;;5095115;28;20291;-82
2022/10/28 05:28:08;;;;;;;2.85;2.05;;;;;;;;;;5096497;28;20556;-81
2022/10/28 05:30:36;;;;;;;4.32;1.95;;;;;;;;;;5095555;28;20312;-81
2022/10/28 05:33:04;;;;;;;6.00;2.90;;;;;;;;;;5095987;28;20208;-84
2022/10/28 05:35:32;;;;;;;6.70;2.58;;;;;;;;;;5095672;28;20285;-84
2022/10/28 05:37:59;;;;;;;6.60;2.20;;;;;;;;;;5095866;28;20311;-82
2022/10/28 05:40:28;;;;;;;3.95;2.30;;;;;;;;;;5095890;28;20224;-82
2022/10/28 05:42:56;;;;;;;4.63;2.10;;;;;;;;;;5095209;28;20200;-82
2022/10/28 05:45:23;;;;;;;6.43;2.53;;;;;;;;;;5095595;28;20210;-82
2022/10/28 05:47:50;;;;;;;3.30;2.97;;;;;;;;;;5095167;28;20262;-82
2022/10/28 05:50:20;;;;;;;3.10;1.77;;;;;;;;;;5095145;28;20243;-82
2022/10/28 05:52:48;;;;;;;3.38;2.15;;;;;;;;;;5095253;28;20207;-83
2022/10/28 05:55:18;;;;;;;4.38;2.50;;;;;;;;;;5095455;28;20242;-82
2022/10/28 05:57:47;;;;;;;4.13;2.80;;;;;;;;;;5095688;28;20223;-82
2022/10/28 06:00:16;;;;;;;2.42;1.92;;;;;;;;;;5095853;28;20556;-83
2022/10/28 06:02:44;;;;;;;3.15;2.80;;;;;;;;;;5095503;28;20203;-82
2022/10/28 06:05:12;;;;;;;4.00;2.00;;;;;;;;;;5095295;28;20684;-84
2022/10/28 06:07:41;;;;;;;3.45;2.10;;;;;;;;;;5094708;28;20307;-81
2022/10/28 06:10:10;;;;;;;4.57;2.90;;;;;;;;;;5094631;28;20200;-83
2022/10/28 06:12:38;;;;;;;3.88;2.20;;;;;;;;;;5094852;28;20657;-83
2022/10/28 06:15:08;;;;;;;3.15;2.72;;;;;;;;;;5094209;28;20192;-82
2022/10/28 06:17:36;;;;;;;1.90;1.70;;;;;;;;;;5094322;28;20696;-84
2022/10/28 06:20:05;;;;;;;2.25;1.58;;;;;;;;;;5094158;28;20224;-83
2022/10/28 06:22:33;;;;;;;5.40;2.20;;;;;;;;;;5094044;28;20192;-83
2022/10/28 06:25:00;;;;;;;3.85;2.38;;;;;;;;;;5094439;28;20811;-81
2022/10/28 06:27:28;;;;;;;2.40;2.00;;;;;;;;;;5093890;28;20299;-82
2022/10/28 06:29:55;;;;;;;4.38;2.25;;;;;;;;;;5094444;28;20283;-83
2022/10/28 06:32:24;;;;;;;4.60;1.90;;;;;;;;;;5095051;28;20288;-82
2022/10/28 06:34:52;;;;;;;2.25;2.00;;;;;;;;;;5095850;28;20204;-82
2022/10/28 06:37:19;;;;;;;6.07;2.72;;;;;;;;;;5095705;28;20739;-85
2022/10/28 06:39:50;;;;;;;3.15;2.50;;;;;;;;;;5094767;28;20731;-85
2022/10/28 06:42:17;;;;;;;3.65;2.10;;;;;;;;;;5095821;28;20196;-86
2022/10/28 06:44:45;;;;;;;1.83;1.70;;;;;;;;;;5095291;28;20435;-86
2022/10/28 06:47:12;;;;;;;5.30;2.33;;;;;;;;;;5095301;28;20771;-86
2022/10/28 06:49:41;;;;;;;5.13;2.58;;;;;;;;;;5095156;28;20192;-86
2022/10/28 06:52:09;;;;;;;7.70;2.22;;;;;;;;;;5095657;28;20188;-86
2022/10/28 06:54:36;;;;;;;4.20;2.35;;;;;;;;;;5096583;28;20200;-85
2022/10/28 06:57:04;;;;;;;3.90;2.42;;;;;;;;;;5095598;28;20224;-86
2022/10/28 06:59:31;;;;;;;3.80;2.05;;;;;;;;;;5093623;28;20229;-87
2022/10/28 07:01:59;;;;;;;4.93;2.38;;;;;;;;;;5093989;28;20223;-87
2022/10/28 07:04:26;;;;;;;5.43;3.00;;;;;;;;;;5093231;28;20284;-87
2022/10/28 07:06:57;;;;;;;3.25;2.35;;;;;;;;;;5094047;28;20251;-87
2022/10/28 07:09:24;;;;;;;2.65;2.08;;;;;;;;;;5093795;28;20287;-87
2022/10/28 07:11:52;;;;;;;4.80;2.20;;;;;;;;;;5093229;28;20224;-87
2022/10/28 07:14:19;;;;;;;1.80;1.42;;;;;;;;;;5093343;28;20247;-86
2022/10/28 07:16:47;;;;;;;2.28;2.08;;;;;;;;;;5093408;28;20255;-87
2022/10/28 07:19:14;;;;;;;4.60;2.10;;;;;;;;;;5093224;28;20307;-86
2022/10/28 07:21:42;;;;;;;5.43;1.90;;;;;;;;;;5093435;28;20223;-87
2022/10/28 07:24:11;;;;;;;3.42;1.80;;;;;;;;;;5092978;28;20272;-86
2022/10/28 07:26:39;;;;;;;3.90;1.80;;;;;;;;;;5093703;28;20307;-87
2022/10/28 07:29:06;;;;;;;3.30;2.20;;;;;;;;;;5095712;28;20232;-87
2022/10/28 07:31:34;;;;;;;1.92;1.63;;;;;;;;;;5098274;28;20232;-87
2022/10/28 07:34:01;;;;;;;3.05;2.08;;;;;;;;;;5096808;28;20291;-87
2022/10/28 07:36:29;;;;;;;7.47;2.30;;;;;;;;;;5097313;28;20216;-86
2022/10/28 07:38:57;;;;;;;3.20;2.50;;;;;;;;;;5097269;28;20224;-86
2022/10/28 07:41:26;;;;;;;2.58;1.73;;;;;;;;;;5098242;28;20611;-86
2022/10/28 07:43:53;;;;;;;5.07;2.35;;;;;;;;;;5098084;28;20279;-85
2022/10/28 07:46:21;;;;;;;2.38;1.90;;;;;;;;;;5097115;28;20224;-87
2022/10/28 07:48:48;;;;;;;2.38;1.90;;;;;;;;;;5098368;28;20204;-86
2022/10/28 07:51:16;;;;;;;4.35;3.03;;;;;;;;;;5097370;28;20225;-85
2022/10/28 07:53:44;;;;;;;5.68;2.92;;;;;;;;;;5096593;28;20242;-86
2022/10/28 07:56:13;;;;;;;3.67;2.00;;;;;;;;;;5095696;28;20760;-87
2022/10/28 07:58:44;;;;;;;5.22;2.15;;;;;;;;;;5096838;28;20200;-86
2022/10/28 08:01:15;;;;;;;3.55;2.40;;;;;;;;;;5097106;28;20672;-87
2022/10/28 08:03:42;;;;;;;2.63;1.77;;;;;;;;;;5096638;28;20668;-87
2022/10/28 08:06:15;;;;;;;5.32;2.47;;;;;;;;;;5097081;28;20224;-87
2022/10/28 08:08:43;;;;;;;2.22;2.00;;;;;;;;;;5095895;28;20683;-86
2022/10/28 08:11:11;;;;;;;2.92;2.50;;;;;;;;;;5096768;28;20290;-87
2022/10/28 08:13:39;;;;;;;4.03;2.45;;;;;;;;;;5096745;28;20712;-86
2022/10/28 08:16:08;;;;;;;6.93;2.90;;;;;;;;;;5097393;28;20303;-86
2022/10/28 08:18:36;;;;;;;4.32;2.10;;;;;;;;;;5098070;28;20204;-86
2022/10/28 08:21:06;;;;;;;3.10;2.25;;;;;;;;;;5097186;28;20220;-86
2022/10/28 08:23:34;;;;;;;1.95;1.85;;;;;;;;;;5097078;28;20238;-88
2022/10/28 08:26:01;;;;;;;4.43;2.53;;;;;;;;;;5097685;28;20282;-87
2022/10/28 08:28:29;;;;;;;5.22;2.70;;;;;;;;;;5095646;28;20226;-86
2022/10/28 08:31:02;;;;;;;4.80;2.38;;;;;;;;;;5095921;28;20287;-87
2022/10/28 08:33:32;;;;;;;4.68;2.20;;;;;;;;;;5097033;28;20231;-87
2022/10/28 08:35:59;;;;;;;2.72;1.90;;;;;;;;;;5096934;28;20220;-87
2022/10/28 08:38:27;;;;;;;5.18;1.85;;;;;;;;;;5096187;28;20288;-87
2022/10/28 08:41:02;;;;;;;1.95;1.77;;;;;;;;;;5094882;28;20586;-84
2022/10/28 08:43:43;;;;;;;6.03;1.88;;;;;;;;;;5096533;28;20294;-86
2022/10/28 08:46:15;;;;;;;6.45;2.75;;;;;;;;;;5104699;22;20255;-86
2022/10/28 08:48:44;;;;;;;2.88;2.30;;;;;;;;;;5095642;28;20223;-86
2022/10/28 08:51:16;;;;;;;3.53;2.15;;;;;;;;;;5098577;28;20300;-86
2022/10/28 08:53:48;;;;;;;5.95;2.45;;;;;;;;;;5097631;28;20188;-87
2022/10/28 08:56:20;;;;;;;4.43;2.53;;;;;;;;;;5096753;28;20625;-86
2022/10/28 08:58:53;;;;;;;2.63;2.30;;;;;;;;;;5098035;28;20195;-85
2022/10/28 09:01:31;;;;;;;2.78;1.63;;;;;;;;;;5097574;28;20215;-85
2022/10/28 09:04:05;;;;;;;4.70;2.25;;;;;;;;;;5096897;28;20185;-85
2022/10/28 09:06:32;;;;;;;9.57;3.75;;;;;;;;;;5096315;28;20306;-85
2022/10/28 09:09:00;;;;;;;2.90;2.05;;;;;;;;;;5095478;28;20207;-86
2022/10/28 09:11:56;;;;;;;2.88;2.08;;;;;;;;;;5096960;28;20204;-85
2022/10/28 09:14:47;;;;;;;1.77;1.63;;;;;;;;;;5089452;28;20211;-86
2022/10/28 09:17:19;;;;;;;1.95;1.63;;;;;;;;;;5096756;28;20299;-86
2022/10/28 09:19:51;;;;;;;2.00;1.83;;;;;;;;;;5095473;28;20712;-86
2022/10/28 09:22:24;;;;;;;3.45;1.88;;;;;;;;;;5097468;28;20223;-86
2022/10/28 09:24:56;;;;;;;5.85;2.90;;;;;;;;;;5111306;28;20739;-86
2022/10/28 09:27:53;;;;;;;4.18;2.42;;;;;;;;;;5116464;28;20247;-85
2022/10/28 09:30:35;;;;;;;5.35;2.28;;;;;;;;;;5099749;28;20202;-86
2022/10/28 09:33:15;;;;;;;6.97;2.53;;;;;;;;;;5116971;28;20194;-86
2022/10/28 09:35:47;;;;;;;4.35;2.90;;;;;;;;;;5116420;28;20266;-87
2022/10/28 09:38:22;;;;;;;2.90;2.50;;;;;;;;;;5116964;28;20306;-85
2022/10/28 09:40:54;;;;;;;3.42;3.00;;;;;;;;;;5115843;28;20223;-86
2022/10/28 09:43:27;;;;;;;6.75;2.97;;;;;;;;;;5116391;28;20584;-86
2022/10/28 09:45:57;;;;;;;2.90;2.30;;;;;;;;;;5116094;28;20294;-86
2022/10/28 09:48:28;;;;;;;2.83;2.55;;;;;;;;;;5114700;28;20314;-87
2022/10/28 09:50:58;;;;;;;5.65;2.42;;;;;;;;;;5115801;28;20275;-87
2022/10/28 09:53:36;;;;;;;5.00;3.08;;;;;;;;;;5115850;28;20238;-87
2022/10/28 09:56:05;;;;;;;5.65;2.05;;;;;;;;;;5117563;28;20194;-86
2022/10/28 09:58:33;;;;;;;4.03;2.20;;;;;;;;;;5115796;28;20211;-86
2022/10/28 10:01:01;;;;;;;3.33;2.20;;;;;;;;;;5115290;28;20224;-86
2022/10/28 10:03:28;;;;;;;5.97;2.05;;;;;;;;;;5114707;28;20200;-87
2022/10/28 10:06:01;;;;;;;4.22;2.42;;;;;;;;;;5115788;28;20631;-86
2022/10/28 10:08:30;;;;;;;5.15;2.67;;;;;;;;;;5115481;28;20220;-86
2022/10/28 10:10:59;;;;;;;7.00;2.00;;;;;;;;;;5115959;28;20206;-86
2022/10/28 10:13:32;;;;;;;4.30;2.70;;;;;;;;;;5117516;28;20218;-86
2022/10/28 10:16:04;;;;;;;3.38;2.45;;;;;;;;;;5115316;28;20495;-86
2022/10/28 10:18:33;;;;;;;2.15;1.80;;;;;;;;;;5115615;28;20247;-85
2022/10/28 10:21:02;;;;;;;4.70;3.15;;;;;;;;;;5116815;28;20260;-86
2022/10/28 10:23:32;;;;;;;3.38;2.17;;;;;;;;;;5117049;28;20199;-86
2022/10/28 10:26:03;;;;;;;4.03;2.45;;;;;;;;;;5117015;28;20282;-86
2022/10/28 10:28:31;;;;;;;3.67;2.08;;;;;;;;;;5116022;28;20310;-86
2022/10/28 10:31:02;;;;;;;3.50;2.55;;;;;;;;;;5116834;28;20287;-86
2022/10/28 10:33:34;;;;;;;3.42;2.13;;;;;;;;;;5115727;28;20363;-86
2022/10/28 10:36:12;;;;;;;5.78;2.15;;;;;;;;;;5114574;28;20287;-85
2022/10/28 10:38:47;;;;;;;6.63;2.92;;;;;;;;;;5114801;28;20569;-85
2022/10/28 10:41:34;;;;;;;3.90;2.47;;;;;;;;;;5113979;28;20586;-85
2022/10/28 10:44:01;;;;;;;4.75;2.78;;;;;;;;;;5115057;28;20242;-84
2022/10/28 10:46:29;;;;;;;3.15;2.35;;;;;;;;;;5114747;28;20242;-83
2022/10/28 10:49:12;;;;;;;3.00;2.38;;;;;;;;;;5113651;28;20238;-83
2022/10/28 10:51:50;;;;;;;2.28;1.90;;;;;;;;;;5114797;28;20228;-84
2022/10/28 10:54:17;;;;;;;3.42;2.05;;;;;;;;;;5115272;28;20588;-85
2022/10/28 10:56:45;;;;;;;3.00;2.05;;;;;;;;;;5114494;28;20509;-83
2022/10/28 10:59:26;;;;;;;6.07;2.45;;;;;;;;;;5114793;28;20651;-83
2022/10/28 11:01:53;;;;;;;3.20;2.20;;;;;;;;;;5113616;28;20233;-84
2022/10/28 11:04:23;;;;;;;3.75;1.98;;;;;;;;;;5114396;28;20580;-84
2022/10/28 11:06:54;;;;;;;7.20;2.67;;;;;;;;;;5115092;28;20215;-83
2022/10/28 11:09:27;;;;;;;3.63;2.10;;;;;;;;;;5114796;28;20294;-84
2022/10/28 11:11:55;;;;;;;2.40;1.77;;;;;;;;;;5114735;28;20290;-84
2022/10/28 11:14:27;;;;;;;4.55;2.13;;;;;;;;;;5114444;28;20580;-84
2022/10/28 11:16:57;;;;;;;5.22;2.47;;;;;;;;;;5115056;28;20582;-84
2022/10/28 11:19:29;;;;;;;3.88;2.00;;;;;;;;;;5114919;28;20234;-85
2022/10/28 11:22:12;;;;;;;1.70;1.60;;;;;;;;;;5115219;28;20222;-85
2022/10/28 11:25:01;;;;;;;2.38;1.77;;;;;;;;;;5113912;28;20207;-84
2022/10/28 11:27:42;;;;;;;2.58;2.30;;;;;;;;;;5114618;28;20219;-84
2022/10/28 11:30:13;;;;;;;3.42;2.13;;;;;;;;;;5114379;28;20200;-84
2022/10/28 11:32:54;;;;;;;3.15;2.25;;;;;;;;;;5114871;28;20579;-85
2022/10/28 11:35:43;;;;;;;4.38;2.15;;;;;;;;;;5115457;28;20678;-84
2022/10/28 11:38:27;;;;;;;3.17;1.90;;;;;;;;;;5114501;28;20228;-84
2022/10/28 11:41:11;;;;;;;3.65;2.22;;;;;;;;;;5114565;28;20199;-84
2022/10/28 11:43:48;;;;;;;4.05;2.17;;;;;;;;;;5114781;28;20200;-85
2022/10/28 11:46:23;;;;;;;4.68;2.28;;;;;;;;;;5114322;28;20202;-85
2022/10/28 11:49:33;;;;;;;3.20;2.30;;;;;;;;;;5114370;28;20772;-83
2022/10/28 11:52:10;;;;;;;4.15;2.38;;;;;;;;;;5113938;28;20593;-84
2022/10/28 11:54:54;;;;;;;3.72;2.83;;;;;;;;;;5114076;28;20558;-85
2022/10/28 11:57:28;;;;;;;4.00;2.33;;;;;;;;;;5114503;28;20220;-85
2022/10/28 12:00:24;;;;;;;4.60;2.25;;;;;;;;;;5114198;28;20288;-85
2022/10/28 12:03:08;;;;;;;1.88;1.70;;;;;;;;;;5114863;28;20601;-85
2022/10/28 12:05:40;;;;;;;4.55;2.78;;;;;;;;;;5114764;28;20204;-83
2022/10/28 12:08:23;;;;;;;2.75;2.15;;;;;;;;;;5114090;28;20311;-84
2022/10/28 12:11:09;;;;;;;3.42;1.92;;;;;;;;;;5114763;28;20200;-84
2022/10/28 12:13:42;;;;;;;3.53;2.33;;;;;;;;;;5113976;28;20582;-84
2022/10/28 12:16:15;;;;;;;2.90;2.55;;;;;;;;;;5118199;28;20294;-83
2022/10/28 12:18:50;;;;;;;2.25;1.50;;;;;;;;;;5118028;28;20206;-83
2022/10/28 12:21:27;;;;;;;5.72;3.00;;;;;;;;;;5117377;28;20199;-83
2022/10/28 12:23:56;;;;;;;2.10;1.70;;;;;;;;;;5117907;28;20266;-84
2022/10/28 12:26:33;;;;;;;2.75;1.70;;;;;;;;;;5117546;28;20287;-84
2022/10/28 12:29:05;;;;;;;2.30;1.58;;;;;;;;;;5117632;28;20199;-85
2022/10/28 12:31:41;;;;;;;3.10;2.17;;;;;;;;;;5117758;28;20235;-84
2022/10/28 12:34:14;;;;;;;2.50;1.70;;;;;;;;;;5117608;28;20199;-85
2022/10/28 12:36:45;;;;;;;3.17;1.80;;;;;;;;;;5117559;28;20222;-86
2022/10/28 12:39:17;;;;;;;7.70;2.67;;;;;;;;;;5116694;28;20706;-85
2022/10/28 12:41:53;;;;;;;3.60;2.03;;;;;;;;;;5116299;28;20207;-85
2022/10/28 12:44:22;;;;;;;2.25;1.83;;;;;;;;;;5116225;28;20290;-85
2022/10/28 12:47:03;;;;;;;4.30;2.00;;;;;;;;;;5116409;28;20227;-85
2022/10/28 12:49:41;;;;;;;3.22;1.80;;;;;;;;;;5116743;28;20545;-84
2022/10/28 12:52:20;;;;;;;4.35;2.22;;;;;;;;;;5118187;28;20195;-85
2022/10/28 12:54:57;;;;;;;5.18;2.38;;;;;;;;;;5118083;28;20207;-85
2022/10/28 12:57:26;;;;;;;2.65;1.80;;;;;;;;;;5117462;28;20220;-85
2022/10/28 12:59:59;;;;;;;2.70;2.05;;;;;;;;;;5116329;28;20286;-85
2022/10/28 13:02:30;;;;;;;5.03;3.22;;;;;;;;;;5117032;28;20223;-85
2022/10/28 13:04:58;;;;;;;3.28;1.42;;;;;;;;;;5116937;28;20210;-84
2022/10/28 13:07:41;;;;;;;5.18;1.88;;;;;;;;;;5116333;28;20248;-85
2022/10/28 13:10:22;;;;;;;4.35;2.00;;;;;;;;;;5117684;28;20308;-85
2022/10/28 13:13:18;;;;;;;3.45;1.98;;;;;;;;;;5117950;28;20192;-85
2022/10/28 13:16:09;;;;;;;2.63;1.88;;;;;;;;;;5116833;28;20207;-85
2022/10/28 13:19:17;;;;;;;4.22;1.90;;;;;;;;;;5117269;28;20211;-85
2022/10/28 13:22:16;;;;;;;6.47;2.00;;;;;;;;;;5116805;28;20235;-85
2022/10/28 13:24:51;;;;;;;5.05;2.05;;;;;;;;;;5116527;28;20206;-85
2022/10/28 13:27:20;;;;;;;3.72;2.28;;;;;;;;;;5115445;28;20238;-85
2022/10/28 13:29:52;;;;;;;3.95;1.98;;;;;;;;;;5116306;28;20231;-85
2022/10/28 13:32:33;;;;;;;3.95;1.95;;;;;;;;;;5116459;28;20243;-85
2022/10/28 13:35:09;;;;;;;6.28;2.47;;;;;;;;;;5117578;28;20227;-85
2022/10/28 13:37:38;;;;;;;2.22;2.03;;;;;;;;;;5116655;28;20258;-86
2022/10/28 13:40:11;;;;;;;2.75;1.77;;;;;;;;;;5117016;28;20203;-85
2022/10/28 13:42:49;;;;;;;4.90;2.55;;;;;;;;;;5117234;28;20306;-86
2022/10/28 13:45:51;;;;;;;3.47;2.25;;;;;;;;;;5117908;28;20204;-85
2022/10/28 13:48:53;;;;;;;3.90;1.83;;;;;;;;;;5118210;28;20258;-85
2022/10/28 13:51:50;;;;;;;1.92;1.70;;;;;;;;;;5111160;28;20699;-85
2022/10/28 13:54:27;;;;;;;3.55;1.77;;;;;;;;;;5048899;28;20699;-85
2022/10/28 13:56:55;;;;;;;4.90;2.65;;;;;;;;;;5095714;28;20223;-85
2022/10/28 13:59:40;;;;;;;4.65;2.00;;;;;;;;;;5093851;28;20623;-86
2022/10/28 14:02:23;;;;;;;2.35;1.63;;;;;;;;;;5095744;28;20204;-84
2022/10/28 14:05:03;;;;;;;3.85;1.85;;;;;;;;;;5096977;28;20200;-85
2022/10/28 14:07:32;;;;;;;2.90;1.88;;;;;;;;;;5095842;28;20751;-84
2022/10/28 14:10:18;;;;;;;1.85;1.60;;;;;;;;;;5095988;28;20204;-84
2022/10/28 14:12:48;;;;;;;8.43;3.13;;;;;;;;;;5097278;28;20204;-86
2022/10/28 14:15:25;;;;;;;4.60;1.85;;;;;;;;;;5095092;28;20651;-86
2022/10/28 14:17:58;;;;;;;5.53;1.98;;;;;;;;;;5095219;28;20216;-86
2022/10/28 14:20:31;;;;;;;3.92;1.92;;;;;;;;;;5095782;28;20204;-85
2022/10/28 14:22:59;;;;;;;9.60;2.08;;;;;;;;;;5094865;28;20287;-85
2022/10/28 14:26:03;;;;;;;3.65;2.25;;;;;;;;;;5115221;28;20290;-86
2022/10/28 14:29:01;;;;;;;4.47;2.65;;;;;;;;;;5114807;28;20418;-86
2022/10/28 14:31:43;;;;;;;4.68;2.10;;;;;;;;;;5032910;28;20297;-85
2022/10/28 14:34:41;;;;;;;3.20;2.00;;;;;;;;;;5104659;28;20200;-85
2022/10/28 14:37:50;;;;;;;2.20;1.88;;;;;;;;;;5116803;28;20222;-85
2022/10/28 14:40:31;;;;;;;3.25;2.30;;;;;;;;;;5108168;28;20211;-86
2022/10/28 14:43:30;;;;;;;4.15;2.15;;;;;;;;;;5114500;28;20204;-86
2022/10/28 14:46:08;;;;;;;6.28;3.33;;;;;;;;;;5094819;28;20209;-87
2022/10/28 14:48:47;;;;;;;4.53;2.70;;;;;;;;;;5113886;28;20209;-86
2022/10/28 14:51:20;;;;;;;4.03;2.20;;;;;;;;;;5117238;28;20204;-84
2022/10/28 14:53:48;;;;;;;2.95;2.17;;;;;;;;;;5116391;28;20289;-85
2022/10/28 14:56:25;;;;;;;4.53;2.20;;;;;;;;;;5117163;28;20192;-85
2022/10/28 14:58:54;;;;;;;3.72;1.83;;;;;;;;;;5115776;28;20238;-85
2022/10/28 15:01:25;;;;;;;4.13;2.22;;;;;;;;;;5114702;28;20200;-86
2022/10/28 15:03:57;;;;;;;5.13;2.38;;;;;;;;;;5114794;28;20245;-86
2022/10/28 15:06:35;;;;;;;3.45;2.40;;;;;;;;;;5116467;28;20696;-83
2022/10/28 15:09:20;;;;;;;3.13;1.73;;;;;;;;;;5116261;28;20643;-86
2022/10/28 15:11:51;;;;;;;2.58;2.08;;;;;;;;;;5117254;28;20199;-85
2022/10/28 15:14:36;;;;;;;6.00;2.53;;;;;;;;;;5116529;28;20233;-86
2022/10/28 15:17:14;;;;;;;2.50;1.88;;;;;;;;;;5115816;28;20226;-84
2022/10/28 15:19:41;;;;;;;3.05;2.00;;;;;;;;;;5115444;28;20226;-84